sensor_id;sensor_type;location;lat;lon;timestamp;pressure;altitude;pressure_sealevel;temperature;humidity
18790;BME280;9523;42.650;23.386;2022-09-19T00:01:21;94699.56;;;7.32;100.00
18790;BME280;9523;42.650;23.386;2022-09-19T00:03:52;94645.03;;;7.03;100.00
18790;BME280;9523;42.650;23.386;2022-09-19T00:06:21;94697.72;;;7.42;100.00
18790;BME280;9523;42.650;23.386;2022-09-19T00:08:49;94692.22;;;7.39;100.00
18790;BME280;9523;42.650;23.386;2022-09-19T00:11:17;94696.91;;;7.42;100.00
18790;BME280;9523;42.650;23.386;2022-09-19T00:13:45;94685.16;;;7.24;100.00
18790;BME280;9523;42.650;23.386;2022-09-19T00:16:21;94692.22;;;7.29;100.00
18790;BME280;9523;42.650;23.386;2022-09-19T00:18:50;94695.91;;;7.28;100.00
18790;BME280;9523;42.650;23.386;2022-09-19T00:21:21;94688.56;;;7.20;100.00
18790;BME280;9523;42.650;23.386;2022-09-19T00:23:48;94691.16;;;7.25;100.00
18790;BME280;9523;42.650;23.386;2022-09-19T00:26:35;94685.94;;;7.15;100.00
18790;BME280;9523;42.650;23.386;2022-09-19T00:29:02;94653.69;;;6.89;100.00
18790;BME280;9523;42.650;23.386;2022-09-19T00:31:30;94684.09;;;7.20;100.00
18790;BME280;9523;42.650;23.386;2022-09-19T00:33:56;94689.59;;;7.24;100.00
18790;BME280;9523;42.650;23.386;2022-09-19T00:36:25;94690.16;;;7.16;100.00
18790;BME280;9523;42.650;23.386;2022-09-19T00:38:52;94689.09;;;6.96;100.00
18790;BME280;9523;42.650;23.386;2022-09-19T00:41:23;94696.44;;;7.04;100.00
18790;BME280;9523;42.650;23.386;2022-09-19T00:43:52;94693.28;;;7.02;100.00
18790;BME280;9523;42.650;23.386;2022-09-19T00:46:21;94670.22;;;6.84;100.00
18790;BME280;9523;42.650;23.386;2022-09-19T00:48:51;94697.47;;;6.93;100.00
18790;BME280;9523;42.650;23.386;2022-09-19T00:51:25;94698.81;;;6.91;100.00
18790;BME280;9523;42.650;23.386;2022-09-19T00:54:00;94700.91;;;6.84;100.00
18790;BME280;9523;42.650;23.386;2022-09-19T00:56:28;94700.38;;;6.77;100.00
18790;BME280;9523;42.650;23.386;2022-09-19T00:58:57;94700.91;;;6.69;100.00
18790;BME280;9523;42.650;23.386;2022-09-19T01:01:25;94699.00;;;6.49;100.00
18790;BME280;9523;42.650;23.386;2022-09-19T01:03:52;94691.16;;;6.44;100.00
18790;BME280;9523;42.650;23.386;2022-09-19T01:06:43;94699.00;;;6.39;100.00
18790;BME280;9523;42.650;23.386;2022-09-19T01:09:26;94696.09;;;6.30;100.00
18790;BME280;9523;42.650;23.386;2022-09-19T01:12:20;94690.59;;;6.27;100.00
18790;BME280;9523;42.650;23.386;2022-09-19T01:15:07;94690.03;;;6.14;100.00
18790;BME280;9523;42.650;23.386;2022-09-19T01:17:40;94688.69;;;5.97;100.00
18790;BME280;9523;42.650;23.386;2022-09-19T01:23:15;94690.72;;;5.90;100.00
18790;BME280;9523;42.650;23.386;2022-09-19T01:25:56;94697.03;;;5.94;100.00
18790;BME280;9523;42.650;23.386;2022-09-19T01:28:32;94695.16;;;5.89;100.00
18790;BME280;9523;42.650;23.386;2022-09-19T01:31:06;94694.66;;;5.87;100.00
18790;BME280;9523;42.650;23.386;2022-09-19T01:33:49;94686.28;;;5.90;100.00
18790;BME280;9523;42.650;23.386;2022-09-19T01:36:19;94684.19;;;5.92;100.00
18790;BME280;9523;42.650;23.386;2022-09-19T01:38:48;94676.34;;;5.92;100.00
18790;BME280;9523;42.650;23.386;2022-09-19T01:41:17;94671.63;;;5.94;100.00
18790;BME280;9523;42.650;23.386;2022-09-19T01:43:46;94675.84;;;6.00;100.00
18790;BME280;9523;42.650;23.386;2022-09-19T01:46:21;94669.50;;;5.86;100.00
18790;BME280;9523;42.650;23.386;2022-09-19T01:48:59;94672.41;;;5.95;100.00
18790;BME280;9523;42.650;23.386;2022-09-19T01:51:37;94674.78;;;5.96;100.00
18790;BME280;9523;42.650;23.386;2022-09-19T01:54:23;94647.19;;;5.79;100.00
18790;BME280;9523;42.650;23.386;2022-09-19T01:56:59;94670.88;;;6.04;100.00
18790;BME280;9523;42.650;23.386;2022-09-19T01:59:44;94668.25;;;5.99;100.00
18790;BME280;9523;42.650;23.386;2022-09-19T02:02:19;94663.78;;;5.99;100.00
18790;BME280;9523;42.650;23.386;2022-09-19T02:04:55;94663.78;;;5.99;100.00
18790;BME280;9523;42.650;23.386;2022-09-19T02:07:27;94660.34;;;5.94;100.00
18790;BME280;9523;42.650;23.386;2022-09-19T02:10:02;94667.94;;;5.90;100.00
18790;BME280;9523;42.650;23.386;2022-09-19T02:12:34;94661.91;;;5.85;100.00
18790;BME280;9523;42.650;23.386;2022-09-19T02:15:05;94660.31;;;5.84;100.00
18790;BME280;9523;42.650;23.386;2022-09-19T02:17:39;94654.34;;;5.88;100.00
18790;BME280;9523;42.650;23.386;2022-09-19T02:20:13;94654.63;;;5.97;100.00
18790;BME280;9523;42.650;23.386;2022-09-19T02:22:44;94657.00;;;6.03;100.00
18790;BME280;9523;42.650;23.386;2022-09-19T02:25:15;94664.34;;;6.06;100.00
18790;BME280;9523;42.650;23.386;2022-09-19T02:27:46;94652.84;;;6.12;100.00
18790;BME280;9523;42.650;23.386;2022-09-19T02:30:18;94647.34;;;6.19;100.00
18790;BME280;9523;42.650;23.386;2022-09-19T02:32:46;94652.59;;;6.24;100.00
18790;BME280;9523;42.650;23.386;2022-09-19T02:35:15;94652.03;;;6.17;100.00
18790;BME280;9523;42.650;23.386;2022-09-19T02:37:45;94654.91;;;6.10;100.00
18790;BME280;9523;42.650;23.386;2022-09-19T02:40:19;94657.28;;;6.12;100.00
18790;BME280;9523;42.650;23.386;2022-09-19T02:42:51;94658.06;;;6.12;100.00
18790;BME280;9523;42.650;23.386;2022-09-19T02:45:25;94655.69;;;6.01;100.00
18790;BME280;9523;42.650;23.386;2022-09-19T02:48:00;94647.81;;;5.96;100.00
18790;BME280;9523;42.650;23.386;2022-09-19T02:50:34;94656.97;;;5.98;100.00
18790;BME280;9523;42.650;23.386;2022-09-19T02:53:08;94652.00;;;5.92;100.00
18790;BME280;9523;42.650;23.386;2022-09-19T02:55:43;94659.06;;;6.01;100.00
18790;BME280;9523;42.650;23.386;2022-09-19T02:58:13;94662.22;;;5.98;100.00
18790;BME280;9523;42.650;23.386;2022-09-19T03:00:45;94658.53;;;5.94;100.00
18790;BME280;9523;42.650;23.386;2022-09-19T03:03:20;94654.84;;;5.90;100.00
18790;BME280;9523;42.650;23.386;2022-09-19T03:06:09;94641.19;;;5.83;100.00
18790;BME280;9523;42.650;23.386;2022-09-19T03:08:38;94651.19;;;5.86;100.00
18790;BME280;9523;42.650;23.386;2022-09-19T03:11:08;94651.72;;;5.88;100.00
18790;BME280;9523;42.650;23.386;2022-09-19T03:13:39;94654.84;;;5.90;100.00
18790;BME280;9523;42.650;23.386;2022-09-19T03:16:10;94660.63;;;5.87;100.00
18790;BME280;9523;42.650;23.386;2022-09-19T03:18:42;94660.63;;;5.87;100.00
18790;BME280;9523;42.650;23.386;2022-09-19T03:21:13;94654.28;;;5.83;100.00
18790;BME280;9523;42.650;23.386;2022-09-19T03:23:47;94652.69;;;5.82;100.00
18790;BME280;9523;42.650;23.386;2022-09-19T03:26:18;94660.84;;;5.81;100.00
18790;BME280;9523;42.650;23.386;2022-09-19T03:28:46;94663.72;;;5.84;100.00
18790;BME280;9523;42.650;23.386;2022-09-19T03:31:14;94665.78;;;5.77;100.00
18790;BME280;9523;42.650;23.386;2022-09-19T03:33:41;94651.38;;;5.75;100.00
18790;BME280;9523;42.650;23.386;2022-09-19T03:36:08;94660.84;;;5.81;100.00
18790;BME280;9523;42.650;23.386;2022-09-19T03:38:36;94659.53;;;5.83;100.00
18790;BME280;9523;42.650;23.386;2022-09-19T03:41:08;94655.88;;;5.84;100.00
18790;BME280;9523;42.650;23.386;2022-09-19T03:43:35;94660.81;;;5.76;100.00
18790;BME280;9523;42.650;23.386;2022-09-19T03:46:02;94655.88;;;5.89;100.00
18790;BME280;9523;42.650;23.386;2022-09-19T03:48:30;94648.59;;;5.96;100.00
18790;BME280;9523;42.650;23.386;2022-09-19T03:51:02;94637.06;;;5.92;100.00
18790;BME280;9523;42.650;23.386;2022-09-19T03:53:29;94644.91;;;5.97;100.00
18790;BME280;9523;42.650;23.386;2022-09-19T03:55:57;94640.19;;;5.94;100.00
18790;BME280;9523;42.650;23.386;2022-09-19T03:58:24;94644.59;;;5.84;100.00
18790;BME280;9523;42.650;23.386;2022-09-19T04:00:51;94636.97;;;5.72;100.00
18790;BME280;9523;42.650;23.386;2022-09-19T04:03:19;94629.06;;;5.57;100.00
18790;BME280;9523;42.650;23.386;2022-09-19T04:05:50;94630.63;;;5.58;100.00
18790;BME280;9523;42.650;23.386;2022-09-19T04:08:20;94623.25;;;5.50;100.00
18790;BME280;9523;42.650;23.386;2022-09-19T04:10:50;94626.69;;;5.55;100.00
18790;BME280;9523;42.650;23.386;2022-09-19T04:13:26;94623.19;;;5.35;100.00
18790;BME280;9523;42.650;23.386;2022-09-19T04:15:55;94633.72;;;5.45;100.00
18790;BME280;9523;42.650;23.386;2022-09-19T04:18:22;94630.59;;;5.48;100.00
18790;BME280;9523;42.650;23.386;2022-09-19T04:20:54;94639.22;;;5.53;100.00
18790;BME280;9523;42.650;23.386;2022-09-19T04:23:27;94634.50;;;5.50;100.00
18790;BME280;9523;42.650;23.386;2022-09-19T04:25:54;94633.22;;;5.53;100.00
18790;BME280;9523;42.650;23.386;2022-09-19T04:28:25;94636.88;;;5.52;100.00
18790;BME280;9523;42.650;23.386;2022-09-19T04:30:53;94635.28;;;5.41;100.00
18790;BME280;9523;42.650;23.386;2022-09-19T04:33:20;94623.47;;;5.33;100.00
18790;BME280;9523;42.650;23.386;2022-09-19T04:35:49;94625.78;;;5.30;100.00
18790;BME280;9523;42.650;23.386;2022-09-19T04:38:17;94626.84;;;5.34;100.00
18790;BME280;9523;42.650;23.386;2022-09-19T04:40:46;94628.69;;;5.33;100.00
18790;BME280;9523;42.650;23.386;2022-09-19T04:43:14;94638.59;;;5.31;100.00
18790;BME280;9523;42.650;23.386;2022-09-19T04:45:42;94634.13;;;5.27;100.00
18790;BME280;9523;42.650;23.386;2022-09-19T04:48:12;94637.53;;;5.27;100.00
18790;BME280;9523;42.650;23.386;2022-09-19T04:50:43;94638.06;;;5.24;100.00
18790;BME280;9523;42.650;23.386;2022-09-19T04:53:10;94613.41;;;5.15;100.00
18790;BME280;9523;42.650;23.386;2022-09-19T04:55:47;94625.78;;;5.30;100.00
18790;BME280;9523;42.650;23.386;2022-09-19T04:58:14;94627.13;;;5.32;100.00
18790;BME280;9523;42.650;23.386;2022-09-19T05:00:41;94628.41;;;5.35;100.00
18790;BME280;9523;42.650;23.386;2022-09-19T05:03:12;94626.63;;;5.40;100.00
18790;BME280;9523;42.650;23.386;2022-09-19T05:05:42;94629.78;;;5.47;100.00
18790;BME280;9523;42.650;23.386;2022-09-19T05:08:11;94643.13;;;5.46;100.00
18790;BME280;9523;42.650;23.386;2022-09-19T05:10:40;94634.50;;;5.45;100.00
18790;BME280;9523;42.650;23.386;2022-09-19T05:13:09;94614.06;;;5.37;100.00
18790;BME280;9523;42.650;23.386;2022-09-19T05:15:35;94627.22;;;5.52;100.00
18790;BME280;9523;42.650;23.386;2022-09-19T05:18:07;94640.09;;;5.69;100.00
18790;BME280;9523;42.650;23.386;2022-09-19T05:20:35;94636.66;;;5.63;100.00
18790;BME280;9523;42.650;23.386;2022-09-19T05:23:02;94639.06;;;5.75;100.00
18790;BME280;9523;42.650;23.386;2022-09-19T05:25:34;94630.66;;;5.68;100.00
18790;BME280;9523;42.650;23.386;2022-09-19T05:28:01;94645.91;;;5.81;100.00
18790;BME280;9523;42.650;23.386;2022-09-19T05:30:32;94646.94;;;5.85;100.00
18790;BME280;9523;42.650;23.386;2022-09-19T05:32:59;94652.69;;;5.82;100.00
18790;BME280;9523;42.650;23.386;2022-09-19T05:35:27;94650.13;;;5.87;100.00
18790;BME280;9523;42.650;23.386;2022-09-19T05:37:54;94646.94;;;5.85;100.00
18790;BME280;9523;42.650;23.386;2022-09-19T05:40:22;94659.28;;;5.85;100.00
18790;BME280;9523;42.650;23.386;2022-09-19T05:42:49;94658.22;;;5.81;100.00
18790;BME280;9523;42.650;23.386;2022-09-19T05:45:17;94653.47;;;5.78;100.00
18790;BME280;9523;42.650;23.386;2022-09-19T05:47:47;94654.78;;;5.75;100.00
18790;BME280;9523;42.650;23.386;2022-09-19T05:50:16;94658.47;;;5.79;100.00
18790;BME280;9523;42.650;23.386;2022-09-19T05:52:43;94641.44;;;5.82;100.00
18790;BME280;9523;42.650;23.386;2022-09-19T05:55:28;94654.06;;;5.90;100.00
18790;BME280;9523;42.650;23.386;2022-09-19T05:57:56;94657.50;;;5.95;100.00
18790;BME280;9523;42.650;23.386;2022-09-19T06:00:25;94656.75;;;6.05;100.00
18790;BME280;9523;42.650;23.386;2022-09-19T06:02:55;94655.97;;;6.14;100.00
18790;BME280;9523;42.650;23.386;2022-09-19T06:05:22;94645.53;;;6.25;100.00
18790;BME280;9523;42.650;23.386;2022-09-19T06:07:50;94650.25;;;6.28;100.00
18790;BME280;9523;42.650;23.386;2022-09-19T06:10:18;94649.47;;;6.32;100.00
18790;BME280;9523;42.650;23.386;2022-09-19T06:12:45;94651.84;;;6.44;100.00
18790;BME280;9523;42.650;23.386;2022-09-19T06:15:11;94640.03;;;6.41;100.00
18790;BME280;9523;42.650;23.386;2022-09-19T06:17:39;94647.63;;;6.53;100.00
18790;BME280;9523;42.650;23.386;2022-09-19T06:20:08;94647.91;;;6.61;100.00
18790;BME280;9523;42.650;23.386;2022-09-19T06:22:37;94655.00;;;6.71;100.00
18790;BME280;9523;42.650;23.386;2022-09-19T06:25:04;94637.19;;;6.63;100.00
18790;BME280;9523;42.650;23.386;2022-09-19T06:27:31;94659.72;;;6.89;100.00
18790;BME280;9523;42.650;23.386;2022-09-19T06:29:58;94660.25;;;6.91;100.00
18790;BME280;9523;42.650;23.386;2022-09-19T06:32:27;94655.00;;;6.96;100.00
18790;BME280;9523;42.650;23.386;2022-09-19T06:34:53;94659.72;;;7.04;100.00
18790;BME280;9523;42.650;23.386;2022-09-19T06:37:22;94652.63;;;7.10;100.00
18790;BME280;9523;42.650;23.386;2022-09-19T06:39:48;94645.53;;;7.11;100.00
18790;BME280;9523;42.650;23.386;2022-09-19T06:42:15;94657.59;;;7.27;100.00
18790;BME280;9523;42.650;23.386;2022-09-19T06:44:45;94650.50;;;7.22;100.00
18790;BME280;9523;42.650;23.386;2022-09-19T06:47:12;94659.41;;;7.31;100.00
18790;BME280;9523;42.650;23.386;2022-09-19T06:49:39;94656.50;;;7.43;100.00
18790;BME280;9523;42.650;23.386;2022-09-19T06:52:06;94647.03;;;7.52;100.00
18790;BME280;9523;42.650;23.386;2022-09-19T06:54:34;94647.00;;;7.57;100.00
18790;BME280;9523;42.650;23.386;2022-09-19T06:57:01;94652.22;;;7.67;100.00
18790;BME280;9523;42.650;23.386;2022-09-19T06:59:28;94652.66;;;7.84;100.00
18790;BME280;9523;42.650;23.386;2022-09-19T07:01:55;94650.03;;;7.89;100.00
18790;BME280;9523;42.650;23.386;2022-09-19T07:04:22;94649.47;;;7.97;100.00
18790;BME280;9523;42.650;23.386;2022-09-19T07:06:48;94638.63;;;8.09;100.00
18790;BME280;9523;42.650;23.386;2022-09-19T07:09:15;94644.66;;;8.20;100.00
18790;BME280;9523;42.650;23.386;2022-09-19T07:11:43;94636.94;;;8.28;100.00
18790;BME280;9523;42.650;23.386;2022-09-19T07:14:11;94642.09;;;8.48;100.00
18790;BME280;9523;42.650;23.386;2022-09-19T07:16:38;94630.19;;;8.61;100.00
18790;BME280;9523;42.650;23.386;2022-09-19T07:19:05;94623.19;;;8.80;100.00
18790;BME280;9523;42.650;23.386;2022-09-19T07:21:32;94629.72;;;8.88;100.00
18790;BME280;9523;42.650;23.386;2022-09-19T07:23:59;94623.59;;;8.98;100.00
18790;BME280;9523;42.650;23.386;2022-09-19T07:26:27;94610.94;;;9.00;100.00
18790;BME280;9523;42.650;23.386;2022-09-19T07:28:55;94623.91;;;9.20;100.00
18790;BME280;9523;42.650;23.386;2022-09-19T07:31:22;94620.63;;;9.33;100.00
18790;BME280;9523;42.650;23.386;2022-09-19T07:33:49;94619.16;;;9.46;100.00
18790;BME280;9523;42.650;23.386;2022-09-19T07:36:16;94609.50;;;9.60;100.00
18790;BME280;9523;42.650;23.386;2022-09-19T07:38:46;94619.66;;;9.71;100.00
18790;BME280;9523;42.650;23.386;2022-09-19T07:41:14;94615.22;;;9.90;100.00
18790;BME280;9523;42.650;23.386;2022-09-19T07:43:42;94617.09;;;10.09;100.00
18790;BME280;9523;42.650;23.386;2022-09-19T07:46:10;94611.63;;;10.24;100.00
18790;BME280;9523;42.650;23.386;2022-09-19T07:48:40;94613.78;;;10.41;100.00
18790;BME280;9523;42.650;23.386;2022-09-19T07:51:07;94611.69;;;10.56;100.00
18790;BME280;9523;42.650;23.386;2022-09-19T07:53:34;94605.19;;;10.67;99.67
18790;BME280;9523;42.650;23.386;2022-09-19T07:56:01;94605.44;;;10.84;98.90
18790;BME280;9523;42.650;23.386;2022-09-19T07:58:29;94595.72;;;10.99;96.53
18790;BME280;9523;42.650;23.386;2022-09-19T08:00:58;94599.88;;;11.18;94.98
18790;BME280;9523;42.650;23.386;2022-09-19T08:03:27;94598.22;;;11.36;94.19
18790;BME280;9523;42.650;23.386;2022-09-19T08:05:54;94602.16;;;11.52;91.04
18790;BME280;9523;42.650;23.386;2022-09-19T08:08:22;94600.22;;;11.71;88.74
18790;BME280;9523;42.650;23.386;2022-09-19T08:10:49;94594.63;;;11.87;86.78
18790;BME280;9523;42.650;23.386;2022-09-19T08:13:18;94586.88;;;12.04;85.87
18790;BME280;9523;42.650;23.386;2022-09-19T08:15:45;94587.63;;;12.18;84.33
18790;BME280;9523;42.650;23.386;2022-09-19T08:18:15;94593.41;;;12.42;82.34
18790;BME280;9523;42.650;23.386;2022-09-19T08:20:44;94590.03;;;12.64;81.14
18790;BME280;9523;42.650;23.386;2022-09-19T08:23:12;94583.81;;;12.91;78.54
18790;BME280;9523;42.650;23.386;2022-09-19T08:25:41;94573.81;;;13.10;77.83
18790;BME280;9523;42.650;23.386;2022-09-19T08:28:12;94569.28;;;13.33;74.09
18790;BME280;9523;42.650;23.386;2022-09-19T08:30:43;94575.00;;;13.65;71.02
18790;BME280;9523;42.650;23.386;2022-09-19T08:33:12;94588.72;;;14.33;67.05
18790;BME280;9523;42.650;23.386;2022-09-19T08:35:40;94580.47;;;15.41;60.24
18790;BME280;9523;42.650;23.386;2022-09-19T08:38:10;94595.84;;;16.53;53.19
18790;BME280;9523;42.650;23.386;2022-09-19T08:41:00;94581.34;;;17.49;48.89
18790;BME280;9523;42.650;23.386;2022-09-19T08:43:37;94580.19;;;18.07;46.05
18790;BME280;9523;42.650;23.386;2022-09-19T08:46:12;94568.16;;;18.25;44.23
18790;BME280;9523;42.650;23.386;2022-09-19T08:48:53;94568.94;;;19.05;43.00
18790;BME280;9523;42.650;23.386;2022-09-19T08:51:26;94563.31;;;19.85;41.66
18790;BME280;9523;42.650;23.386;2022-09-19T08:54:00;94552.63;;;19.85;40.97
18790;BME280;9523;42.650;23.386;2022-09-19T08:56:29;94565.38;;;20.77;39.79
18790;BME280;9523;42.650;23.386;2022-09-19T08:58:59;94574.31;;;21.65;37.49
18790;BME280;9523;42.650;23.386;2022-09-19T09:01:31;94555.28;;;21.51;37.22
18790;BME280;9523;42.650;23.386;2022-09-19T09:04:14;94565.69;;;22.01;36.78
18790;BME280;9523;42.650;23.386;2022-09-19T09:06:47;94564.97;;;22.83;36.41
18790;BME280;9523;42.650;23.386;2022-09-19T09:09:24;94565.88;;;22.98;34.65
18790;BME280;9523;42.650;23.386;2022-09-19T09:12:02;94545.31;;;23.13;34.05
18790;BME280;9523;42.650;23.386;2022-09-19T09:14:41;94554.47;;;23.85;33.74
18790;BME280;9523;42.650;23.386;2022-09-19T09:17:18;94558.44;;;23.55;32.09
18790;BME280;9523;42.650;23.386;2022-09-19T09:20:15;94559.81;;;23.78;30.84
18790;BME280;9523;42.650;23.386;2022-09-19T09:22:47;94551.84;;;23.49;31.48
18790;BME280;9523;42.650;23.386;2022-09-19T09:25:20;94553.75;;;23.89;30.28
18790;BME280;9523;42.650;23.386;2022-09-19T09:27:52;94543.25;;;24.24;29.70
18790;BME280;9523;42.650;23.386;2022-09-19T09:30:21;94537.16;;;24.41;30.68
18790;BME280;9523;42.650;23.386;2022-09-19T09:32:50;94532.44;;;24.93;28.90
18790;BME280;9523;42.650;23.386;2022-09-19T09:35:30;94524.41;;;25.14;27.99
18790;BME280;9523;42.650;23.386;2022-09-19T09:38:02;94515.94;;;25.19;28.10
18790;BME280;9523;42.650;23.386;2022-09-19T09:40:46;94503.69;;;25.99;26.13
18790;BME280;9523;42.650;23.386;2022-09-19T09:43:40;94498.22;;;26.17;26.41
18790;BME280;9523;42.650;23.386;2022-09-19T09:46:15;94500.56;;;26.04;24.37
18790;BME280;9523;42.650;23.386;2022-09-19T09:48:48;94484.34;;;26.01;24.56
18790;BME280;9523;42.650;23.386;2022-09-19T09:51:32;94495.88;;;26.40;24.57
18790;BME280;9523;42.650;23.386;2022-09-19T09:54:19;94495.75;;;26.76;24.47
18790;BME280;9523;42.650;23.386;2022-09-19T09:57:12;94487.97;;;26.99;24.47
18790;BME280;9523;42.650;23.386;2022-09-19T09:59:45;94490.88;;;26.28;24.86
18790;BME280;9523;42.650;23.386;2022-09-19T10:02:40;94491.72;;;25.83;23.13
18790;BME280;9523;42.650;23.386;2022-09-19T10:05:31;94486.53;;;26.62;23.28
18790;BME280;9523;42.650;23.386;2022-09-19T10:08:09;94478.38;;;26.73;22.99
18790;BME280;9523;42.650;23.386;2022-09-19T10:10:41;94479.34;;;27.18;23.72
18790;BME280;9523;42.650;23.386;2022-09-19T10:13:17;94471.84;;;27.47;23.09
18790;BME280;9523;42.650;23.386;2022-09-19T10:15:52;94471.28;;;27.04;21.88
18790;BME280;9523;42.650;23.386;2022-09-19T10:18:23;94472.31;;;27.24;21.97
18790;BME280;9523;42.650;23.386;2022-09-19T10:20:52;94476.03;;;26.86;23.06
18790;BME280;9523;42.650;23.386;2022-09-19T10:23:23;94447.56;;;27.26;22.83
18790;BME280;9523;42.650;23.386;2022-09-19T10:25:51;94474.75;;;27.04;22.96
18790;BME280;9523;42.650;23.386;2022-09-19T10:28:26;94464.28;;;27.69;21.86
18790;BME280;9523;42.650;23.386;2022-09-19T10:30:58;94461.44;;;27.31;23.14
18790;BME280;9523;42.650;23.386;2022-09-19T10:33:35;94454.31;;;27.55;23.02
18790;BME280;9523;42.650;23.386;2022-09-19T10:36:07;94448.84;;;28.44;22.05
18790;BME280;9523;42.650;23.386;2022-09-19T10:38:47;94450.78;;;28.81;22.30
18790;BME280;9523;42.650;23.386;2022-09-19T10:41:17;94443.84;;;28.76;21.19
18790;BME280;9523;42.650;23.386;2022-09-19T10:43:50;94437.59;;;28.08;22.35
18790;BME280;9523;42.650;23.386;2022-09-19T10:46:19;94434.25;;;28.65;21.15
18790;BME280;9523;42.650;23.386;2022-09-19T10:48:53;94431.91;;;28.67;21.72
18790;BME280;9523;42.650;23.386;2022-09-19T10:51:29;94424.75;;;28.83;21.52
18790;BME280;9523;42.650;23.386;2022-09-19T10:54:07;94417.38;;;28.16;22.18
18790;BME280;9523;42.650;23.386;2022-09-19T10:56:38;94415.97;;;28.01;21.87
18790;BME280;9523;42.650;23.386;2022-09-19T10:59:23;94393.50;;;28.00;21.37
18790;BME280;9523;42.650;23.386;2022-09-19T11:02:17;94414.91;;;28.93;21.52
18790;BME280;9523;42.650;23.386;2022-09-19T11:04:52;94416.03;;;28.69;21.07
18790;BME280;9523;42.650;23.386;2022-09-19T11:07:24;94405.44;;;29.05;21.38
18790;BME280;9523;42.650;23.386;2022-09-19T11:09:55;94405.00;;;29.60;20.84
18790;BME280;9523;42.650;23.386;2022-09-19T11:12:27;94395.41;;;30.18;20.53
18790;BME280;9523;42.650;23.386;2022-09-19T11:14:57;94388.41;;;30.20;20.55
18790;BME280;9523;42.650;23.386;2022-09-19T11:17:52;94370.13;;;30.60;19.54
18790;BME280;9523;42.650;23.386;2022-09-19T11:20:40;94381.22;;;31.21;19.30
18790;BME280;9523;42.650;23.386;2022-09-19T11:23:34;94384.47;;;31.16;19.85
18790;BME280;9523;42.650;23.386;2022-09-19T11:26:15;94375.25;;;30.74;19.40
18790;BME280;9523;42.650;23.386;2022-09-19T11:28:57;94378.56;;;30.46;19.77
18790;BME280;9523;42.650;23.386;2022-09-19T11:31:40;94363.44;;;30.06;19.30
18790;BME280;9523;42.650;23.386;2022-09-19T11:34:17;94363.22;;;30.56;18.78
18790;BME280;9523;42.650;23.386;2022-09-19T11:36:56;94358.88;;;30.39;19.68
18790;BME280;9523;42.650;23.386;2022-09-19T11:39:34;94360.81;;;30.18;19.27
18790;BME280;9523;42.650;23.386;2022-09-19T11:42:18;94351.16;;;30.17;19.60
18790;BME280;9523;42.650;23.386;2022-09-19T11:45:09;94355.13;;;30.33;19.52
18790;BME280;9523;42.650;23.386;2022-09-19T11:50:53;94350.22;;;29.61;19.26
18790;BME280;9523;42.650;23.386;2022-09-19T11:53:42;94345.56;;;30.44;19.92
18790;BME280;9523;42.650;23.386;2022-09-19T11:56:28;94329.84;;;30.52;19.75
18790;BME280;9523;42.650;23.386;2022-09-19T11:59:13;94338.22;;;31.13;19.71
18790;BME280;9523;42.650;23.386;2022-09-19T12:01:53;94347.34;;;31.55;17.82
18790;BME280;9523;42.650;23.386;2022-09-19T12:04:39;94336.00;;;31.73;18.42
18790;BME280;9523;42.650;23.386;2022-09-19T12:07:22;94338.63;;;31.44;18.50
18790;BME280;9523;42.650;23.386;2022-09-19T12:09:59;94338.38;;;30.70;19.07
18790;BME280;9523;42.650;23.386;2022-09-19T12:12:31;94337.59;;;30.89;19.14
18790;BME280;9523;42.650;23.386;2022-09-19T12:15:14;94325.94;;;30.53;19.30
18790;BME280;9523;42.650;23.386;2022-09-19T12:17:44;94313.78;;;30.73;18.97
18790;BME280;9523;42.650;23.386;2022-09-19T12:20:23;94315.06;;;30.53;19.23
18790;BME280;9523;42.650;23.386;2022-09-19T12:22:55;94304.06;;;31.08;18.39
18790;BME280;9523;42.650;23.386;2022-09-19T12:25:26;94299.44;;;31.54;18.56
18790;BME280;9523;42.650;23.386;2022-09-19T12:28:00;94290.75;;;31.59;18.40
18790;BME280;9523;42.650;23.386;2022-09-19T12:30:33;94301.00;;;31.84;17.57
18790;BME280;9523;42.650;23.386;2022-09-19T12:33:08;94300.69;;;31.49;18.59
18790;BME280;9523;42.650;23.386;2022-09-19T12:35:44;94305.94;;;31.11;18.45
18790;BME280;9523;42.650;23.386;2022-09-19T12:38:21;94297.66;;;31.47;18.55
18790;BME280;9523;42.650;23.386;2022-09-19T12:40:53;94295.19;;;31.82;17.88
18790;BME280;9523;42.650;23.386;2022-09-19T12:43:30;94292.56;;;31.33;18.28
18790;BME280;9523;42.650;23.386;2022-09-19T12:46:04;94258.69;;;31.63;17.55
18790;BME280;9523;42.650;23.386;2022-09-19T12:48:39;94272.75;;;31.90;17.46
18790;BME280;9523;42.650;23.386;2022-09-19T12:51:19;94244.50;;;31.39;17.77
18790;BME280;9523;42.650;23.386;2022-09-19T12:53:52;94276.34;;;31.58;16.92
18790;BME280;9523;42.650;23.386;2022-09-19T12:56:30;94271.13;;;31.19;17.27
18790;BME280;9523;42.650;23.386;2022-09-19T12:59:08;94272.03;;;30.64;18.06
18790;BME280;9523;42.650;23.386;2022-09-19T13:01:45;94272.59;;;31.68;18.20
18790;BME280;9523;42.650;23.386;2022-09-19T13:04:26;94274.53;;;32.51;17.16
18790;BME280;9523;42.650;23.386;2022-09-19T13:07:00;94268.06;;;33.21;15.96
18790;BME280;9523;42.650;23.386;2022-09-19T13:09:33;94264.78;;;33.26;16.28
18790;BME280;9523;42.650;23.386;2022-09-19T13:12:10;94272.53;;;33.74;16.20
18790;BME280;9523;42.650;23.386;2022-09-19T13:14:46;94261.34;;;33.81;15.61
18790;BME280;9523;42.650;23.386;2022-09-19T13:17:15;94264.72;;;32.91;16.25
18790;BME280;9523;42.650;23.386;2022-09-19T13:20:01;94255.22;;;32.83;16.60
18790;BME280;9523;42.650;23.386;2022-09-19T13:22:49;94257.41;;;32.63;16.86
18790;BME280;9523;42.650;23.386;2022-09-19T13:25:37;94251.63;;;32.61;16.18
18790;BME280;9523;42.650;23.386;2022-09-19T13:28:26;94249.63;;;32.49;15.62
18790;BME280;9523;42.650;23.386;2022-09-19T13:31:08;94243.16;;;33.19;15.57
18790;BME280;9523;42.650;23.386;2022-09-19T13:33:42;94235.69;;;33.66;15.30
18790;BME280;9523;42.650;23.386;2022-09-19T13:36:15;94232.72;;;32.79;15.59